sensor_id;sensor_type;location;lat;lon;timestamp;temperature;humidity
12720;DHT22;6424;48.520;11.228;2022-11-20T00:00:47;4.90;99.90
12720;DHT22;6424;48.520;11.228;2022-11-20T00:03:27;4.90;99.90
12720;DHT22;6424;48.520;11.228;2022-11-20T00:06:12;4.90;99.90
12720;DHT22;6424;48.520;11.228;2022-11-20T00:08:58;5.00;99.90
12720;DHT22;6424;48.520;11.228;2022-11-20T00:11:40;5.00;99.90
12720;DHT22;6424;48.520;11.228;2022-11-20T00:14:21;5.00;99.90
12720;DHT22;6424;48.520;11.228;2022-11-20T00:17:02;4.90;99.90
12720;DHT22;6424;48.520;11.228;2022-11-20T00:19:28;4.90;99.90
12720;DHT22;6424;48.520;11.228;2022-11-20T00:22:08;5.00;99.90
12720;DHT22;6424;48.520;11.228;2022-11-20T00:24:49;5.00;99.90
12720;DHT22;6424;48.520;11.228;2022-11-20T00:27:30;5.00;99.90
12720;DHT22;6424;48.520;11.228;2022-11-20T00:30:11;4.90;99.90
12720;DHT22;6424;48.520;11.228;2022-11-20T00:32:52;5.00;99.90
12720;DHT22;6424;48.520;11.228;2022-11-20T00:35:33;4.90;99.90
12720;DHT22;6424;48.520;11.228;2022-11-20T00:38:13;5.00;99.90
12720;DHT22;6424;48.520;11.228;2022-11-20T00:41:02;5.00;99.90
12720;DHT22;6424;48.520;11.228;2022-11-20T00:43:43;5.00;99.90
12720;DHT22;6424;48.520;11.228;2022-11-20T00:46:26;5.00;99.90
12720;DHT22;6424;48.520;11.228;2022-11-20T00:49:07;5.00;99.90
12720;DHT22;6424;48.520;11.228;2022-11-20T00:51:48;5.00;99.90
12720;DHT22;6424;48.520;11.228;2022-11-20T00:54:28;5.00;99.90
12720;DHT22;6424;48.520;11.228;2022-11-20T00:57:09;5.00;99.90
12720;DHT22;6424;48.520;11.228;2022-11-20T00:59:50;5.00;99.90
12720;DHT22;6424;48.520;11.228;2022-11-20T01:02:31;5.00;99.90
12720;DHT22;6424;48.520;11.228;2022-11-20T01:05:11;5.00;99.90
12720;DHT22;6424;48.520;11.228;2022-11-20T01:07:52;5.00;99.90
12720;DHT22;6424;48.520;11.228;2022-11-20T01:10:33;5.00;99.90
12720;DHT22;6424;48.520;11.228;2022-11-20T01:13:14;5.00;99.90
12720;DHT22;6424;48.520;11.228;2022-11-20T01:19:01;5.00;99.90
12720;DHT22;6424;48.520;11.228;2022-11-20T01:21:43;5.00;99.90
12720;DHT22;6424;48.520;11.228;2022-11-20T01:24:24;5.00;99.90
12720;DHT22;6424;48.520;11.228;2022-11-20T01:27:05;4.90;99.90
12720;DHT22;6424;48.520;11.228;2022-11-20T01:29:46;4.90;99.90
12720;DHT22;6424;48.520;11.228;2022-11-20T01:32:27;4.90;99.90
12720;DHT22;6424;48.520;11.228;2022-11-20T01:35:08;4.90;99.90
12720;DHT22;6424;48.520;11.228;2022-11-20T01:37:50;4.90;99.90
12720;DHT22;6424;48.520;11.228;2022-11-20T01:40:31;4.90;99.90
12720;DHT22;6424;48.520;11.228;2022-11-20T01:43:19;4.90;99.90
12720;DHT22;6424;48.520;11.228;2022-11-20T01:48:44;4.80;99.90
12720;DHT22;6424;48.520;11.228;2022-11-20T01:51:43;4.80;99.90
12720;DHT22;6424;48.520;11.228;2022-11-20T01:54:31;4.80;99.90
12720;DHT22;6424;48.520;11.228;2022-11-20T01:56:59;4.70;99.90
12720;DHT22;6424;48.520;11.228;2022-11-20T01:59:46;4.70;99.90
12720;DHT22;6424;48.520;11.228;2022-11-20T02:02:28;4.70;99.90
12720;DHT22;6424;48.520;11.228;2022-11-20T02:06:04;4.70;99.90
12720;DHT22;6424;48.520;11.228;2022-11-20T02:08:06;4.70;99.90
12720;DHT22;6424;48.520;11.228;2022-11-20T02:10:47;4.70;99.90
12720;DHT22;6424;48.520;11.228;2022-11-20T02:13:13;4.60;99.90
12720;DHT22;6424;48.520;11.228;2022-11-20T02:16:23;4.60;99.90
12720;DHT22;6424;48.520;11.228;2022-11-20T02:19:07;4.60;99.90
12720;DHT22;6424;48.520;11.228;2022-11-20T02:22:02;4.50;99.90
12720;DHT22;6424;48.520;11.228;2022-11-20T02:24:31;4.50;99.90
12720;DHT22;6424;48.520;11.228;2022-11-20T02:29:42;4.50;99.90
12720;DHT22;6424;48.520;11.228;2022-11-20T02:32:33;4.50;99.90
12720;DHT22;6424;48.520;11.228;2022-11-20T02:38:01;4.50;99.90
12720;DHT22;6424;48.520;11.228;2022-11-20T02:40:43;4.40;99.90
12720;DHT22;6424;48.520;11.228;2022-11-20T02:43:24;4.50;99.90
12720;DHT22;6424;48.520;11.228;2022-11-20T02:46:08;4.50;99.90
12720;DHT22;6424;48.520;11.228;2022-11-20T02:48:34;4.50;99.90
12720;DHT22;6424;48.520;11.228;2022-11-20T02:51:14;4.50;99.90
12720;DHT22;6424;48.520;11.228;2022-11-20T02:53:55;4.50;99.90
12720;DHT22;6424;48.520;11.228;2022-11-20T02:56:38;4.50;99.90
12720;DHT22;6424;48.520;11.228;2022-11-20T02:59:19;4.50;99.90
12720;DHT22;6424;48.520;11.228;2022-11-20T03:01:59;4.50;99.90
12720;DHT22;6424;48.520;11.228;2022-11-20T03:04:40;4.40;99.90
12720;DHT22;6424;48.520;11.228;2022-11-20T03:07:21;4.40;99.90
12720;DHT22;6424;48.520;11.228;2022-11-20T03:10:03;4.40;99.90
12720;DHT22;6424;48.520;11.228;2022-11-20T03:12:44;4.40;99.90
12720;DHT22;6424;48.520;11.228;2022-11-20T03:15:25;4.40;99.90
12720;DHT22;6424;48.520;11.228;2022-11-20T03:18:06;4.40;99.90
12720;DHT22;6424;48.520;11.228;2022-11-20T03:20:47;4.40;99.90
12720;DHT22;6424;48.520;11.228;2022-11-20T03:23:30;4.30;99.90
12720;DHT22;6424;48.520;11.228;2022-11-20T03:26:17;4.30;99.90
12720;DHT22;6424;48.520;11.228;2022-11-20T03:29:00;4.30;99.90
12720;DHT22;6424;48.520;11.228;2022-11-20T03:31:41;4.30;99.90
12720;DHT22;6424;48.520;11.228;2022-11-20T03:34:22;4.30;99.90
12720;DHT22;6424;48.520;11.228;2022-11-20T03:37:03;4.30;99.90
12720;DHT22;6424;48.520;11.228;2022-11-20T03:39:44;4.30;99.90
12720;DHT22;6424;48.520;11.228;2022-11-20T03:42:10;4.30;99.90
12720;DHT22;6424;48.520;11.228;2022-11-20T03:45:09;4.30;99.90
12720;DHT22;6424;48.520;11.228;2022-11-20T03:47:50;4.30;99.90
12720;DHT22;6424;48.520;11.228;2022-11-20T03:50:32;4.40;99.90
12720;DHT22;6424;48.520;11.228;2022-11-20T03:53:15;4.40;99.90
12720;DHT22;6424;48.520;11.228;2022-11-20T03:55:56;4.40;99.90
12720;DHT22;6424;48.520;11.228;2022-11-20T03:58:38;4.40;99.90
12720;DHT22;6424;48.520;11.228;2022-11-20T04:01:08;4.30;99.90
12720;DHT22;6424;48.520;11.228;2022-11-20T04:03:49;4.40;99.90
12720;DHT22;6424;48.520;11.228;2022-11-20T04:06:34;4.40;99.90
12720;DHT22;6424;48.520;11.228;2022-11-20T04:09:15;4.40;99.90
12720;DHT22;6424;48.520;11.228;2022-11-20T04:11:56;4.40;99.90
12720;DHT22;6424;48.520;11.228;2022-11-20T04:14:22;4.40;99.90
12720;DHT22;6424;48.520;11.228;2022-11-20T04:17:03;4.40;99.90
12720;DHT22;6424;48.520;11.228;2022-11-20T04:19:44;4.30;99.90
12720;DHT22;6424;48.520;11.228;2022-11-20T04:22:25;4.30;99.90
12720;DHT22;6424;48.520;11.228;2022-11-20T04:25:06;4.40;99.90
12720;DHT22;6424;48.520;11.228;2022-11-20T04:27:46;4.30;99.90
12720;DHT22;6424;48.520;11.228;2022-11-20T04:30:27;4.30;99.90
12720;DHT22;6424;48.520;11.228;2022-11-20T04:33:08;4.30;99.90
12720;DHT22;6424;48.520;11.228;2022-11-20T04:35:49;4.30;99.90
12720;DHT22;6424;48.520;11.228;2022-11-20T04:38:14;4.30;99.90
12720;DHT22;6424;48.520;11.228;2022-11-20T04:41:00;4.30;99.90
12720;DHT22;6424;48.520;11.228;2022-11-20T04:43:26;4.30;99.90
12720;DHT22;6424;48.520;11.228;2022-11-20T04:45:53;4.30;99.90
12720;DHT22;6424;48.520;11.228;2022-11-20T04:48:19;4.30;99.90
12720;DHT22;6424;48.520;11.228;2022-11-20T04:51:03;4.30;99.90
12720;DHT22;6424;48.520;11.228;2022-11-20T04:53:44;4.30;99.90
12720;DHT22;6424;48.520;11.228;2022-11-20T04:56:25;4.30;99.90
12720;DHT22;6424;48.520;11.228;2022-11-20T04:59:06;4.30;99.90
12720;DHT22;6424;48.520;11.228;2022-11-20T05:01:47;4.20;99.90
12720;DHT22;6424;48.520;11.228;2022-11-20T05:04:27;4.20;99.90
12720;DHT22;6424;48.520;11.228;2022-11-20T05:07:08;4.20;99.90
12720;DHT22;6424;48.520;11.228;2022-11-20T05:09:49;4.20;99.90
12720;DHT22;6424;48.520;11.228;2022-11-20T05:12:30;4.20;99.90
12720;DHT22;6424;48.520;11.228;2022-11-20T05:15:11;4.20;99.90
12720;DHT22;6424;48.520;11.228;2022-11-20T05:17:37;4.10;99.90
12720;DHT22;6424;48.520;11.228;2022-11-20T05:20:18;4.20;99.90
12720;DHT22;6424;48.520;11.228;2022-11-20T05:22:59;4.20;99.90
12720;DHT22;6424;48.520;11.228;2022-11-20T05:25:40;4.10;99.90
12720;DHT22;6424;48.520;11.228;2022-11-20T05:28:21;4.10;99.90
12720;DHT22;6424;48.520;11.228;2022-11-20T05:31:10;4.10;99.90
12720;DHT22;6424;48.520;11.228;2022-11-20T05:33:52;4.10;99.90
12720;DHT22;6424;48.520;11.228;2022-11-20T05:36:33;4.00;99.90
12720;DHT22;6424;48.520;11.228;2022-11-20T05:38:59;3.90;99.90
12720;DHT22;6424;48.520;11.228;2022-11-20T05:41:40;3.90;99.90
12720;DHT22;6424;48.520;11.228;2022-11-20T05:44:21;3.90;99.90
12720;DHT22;6424;48.520;11.228;2022-11-20T05:46:47;3.90;99.90
12720;DHT22;6424;48.520;11.228;2022-11-20T05:49:27;3.90;99.90
12720;DHT22;6424;48.520;11.228;2022-11-20T05:52:08;3.90;99.90
12720;DHT22;6424;48.520;11.228;2022-11-20T05:54:49;3.90;99.90
12720;DHT22;6424;48.520;11.228;2022-11-20T05:57:31;3.90;99.90
12720;DHT22;6424;48.520;11.228;2022-11-20T06:00:12;3.90;99.90
12720;DHT22;6424;48.520;11.228;2022-11-20T06:02:53;3.90;99.90
12720;DHT22;6424;48.520;11.228;2022-11-20T06:05:34;3.80;99.90
12720;DHT22;6424;48.520;11.228;2022-11-20T06:08:15;3.90;99.90
12720;DHT22;6424;48.520;11.228;2022-11-20T06:10:56;3.90;99.90
12720;DHT22;6424;48.520;11.228;2022-11-20T06:13:37;3.90;99.90
12720;DHT22;6424;48.520;11.228;2022-11-20T06:16:19;3.80;99.90
12720;DHT22;6424;48.520;11.228;2022-11-20T06:19:00;3.80;99.90
12720;DHT22;6424;48.520;11.228;2022-11-20T06:21:41;3.80;99.90
12720;DHT22;6424;48.520;11.228;2022-11-20T06:24:22;3.80;99.90
12720;DHT22;6424;48.520;11.228;2022-11-20T06:26:48;3.80;99.90
12720;DHT22;6424;48.520;11.228;2022-11-20T06:29:28;3.80;99.90
12720;DHT22;6424;48.520;11.228;2022-11-20T06:32:09;3.80;99.90
12720;DHT22;6424;48.520;11.228;2022-11-20T06:34:50;3.80;99.90
12720;DHT22;6424;48.520;11.228;2022-11-20T06:37:31;3.80;99.90
12720;DHT22;6424;48.520;11.228;2022-11-20T06:40:12;3.80;99.90
12720;DHT22;6424;48.520;11.228;2022-11-20T06:42:54;3.80;99.90
12720;DHT22;6424;48.520;11.228;2022-11-20T06:45:35;3.90;99.90
12720;DHT22;6424;48.520;11.228;2022-11-20T06:48:16;3.90;99.90
12720;DHT22;6424;48.520;11.228;2022-11-20T06:50:58;3.90;99.90
12720;DHT22;6424;48.520;11.228;2022-11-20T06:53:39;3.90;99.90
12720;DHT22;6424;48.520;11.228;2022-11-20T06:56:19;3.90;99.90
12720;DHT22;6424;48.520;11.228;2022-11-20T06:59:04;4.00;99.90
12720;DHT22;6424;48.520;11.228;2022-11-20T07:01:46;4.00;99.90
12720;DHT22;6424;48.520;11.228;2022-11-20T07:04:26;4.10;99.90
12720;DHT22;6424;48.520;11.228;2022-11-20T07:07:08;4.10;99.90
12720;DHT22;6424;48.520;11.228;2022-11-20T07:09:49;4.10;99.90
12720;DHT22;6424;48.520;11.228;2022-11-20T07:12:30;4.20;99.90
12720;DHT22;6424;48.520;11.228;2022-11-20T07:15:12;4.10;99.90
12720;DHT22;6424;48.520;11.228;2022-11-20T07:17:53;4.20;99.90
12720;DHT22;6424;48.520;11.228;2022-11-20T07:20:34;4.20;99.90
12720;DHT22;6424;48.520;11.228;2022-11-20T07:23:14;4.30;99.90
12720;DHT22;6424;48.520;11.228;2022-11-20T07:25:55;4.30;99.90
12720;DHT22;6424;48.520;11.228;2022-11-20T07:28:36;4.40;99.90
12720;DHT22;6424;48.520;11.228;2022-11-20T07:31:17;4.50;99.90
12720;DHT22;6424;48.520;11.228;2022-11-20T07:33:58;4.50;99.90
12720;DHT22;6424;48.520;11.228;2022-11-20T07:36:39;4.60;99.90
12720;DHT22;6424;48.520;11.228;2022-11-20T07:39:20;4.70;99.90
12720;DHT22;6424;48.520;11.228;2022-11-20T07:42:01;4.80;99.90
12720;DHT22;6424;48.520;11.228;2022-11-20T07:44:41;4.80;99.90
12720;DHT22;6424;48.520;11.228;2022-11-20T07:47:22;4.80;99.90
12720;DHT22;6424;48.520;11.228;2022-11-20T07:50:03;4.80;99.90
12720;DHT22;6424;48.520;11.228;2022-11-20T07:52:44;4.90;99.90
12720;DHT22;6424;48.520;11.228;2022-11-20T07:55:25;4.90;99.90
12720;DHT22;6424;48.520;11.228;2022-11-20T07:57:55;4.90;99.90
12720;DHT22;6424;48.520;11.228;2022-11-20T08:00:36;4.90;99.90
12720;DHT22;6424;48.520;11.228;2022-11-20T08:03:17;4.90;99.90
12720;DHT22;6424;48.520;11.228;2022-11-20T08:06:01;4.90;99.90
12720;DHT22;6424;48.520;11.228;2022-11-20T08:08:42;4.90;99.90
12720;DHT22;6424;48.520;11.228;2022-11-20T08:11:23;4.90;99.90
12720;DHT22;6424;48.520;11.228;2022-11-20T08:14:22;5.00;99.90
12720;DHT22;6424;48.520;11.228;2022-11-20T08:17:03;4.90;99.90
12720;DHT22;6424;48.520;11.228;2022-11-20T08:19:29;5.00;99.90
12720;DHT22;6424;48.520;11.228;2022-11-20T08:22:10;4.90;99.90
12720;DHT22;6424;48.520;11.228;2022-11-20T08:24:50;5.00;99.90
12720;DHT22;6424;48.520;11.228;2022-11-20T08:27:32;5.00;99.90
12720;DHT22;6424;48.520;11.228;2022-11-20T08:30:13;5.00;99.90
12720;DHT22;6424;48.520;11.228;2022-11-20T08:32:55;5.00;99.90
12720;DHT22;6424;48.520;11.228;2022-11-20T08:35:41;5.10;99.90
12720;DHT22;6424;48.520;11.228;2022-11-20T08:38:23;5.10;99.90
12720;DHT22;6424;48.520;11.228;2022-11-20T08:40:49;5.10;99.90
12720;DHT22;6424;48.520;11.228;2022-11-20T08:43:55;5.10;99.90
12720;DHT22;6424;48.520;11.228;2022-11-20T08:46:40;5.10;99.90
12720;DHT22;6424;48.520;11.228;2022-11-20T08:49:22;5.10;99.90
12720;DHT22;6424;48.520;11.228;2022-11-20T08:52:03;5.10;99.90
12720;DHT22;6424;48.520;11.228;2022-11-20T08:54:43;5.10;99.90
12720;DHT22;6424;48.520;11.228;2022-11-20T08:57:09;5.20;99.90
12720;DHT22;6424;48.520;11.228;2022-11-20T08:59:50;5.20;99.90
12720;DHT22;6424;48.520;11.228;2022-11-20T09:02:16;5.20;99.90
12720;DHT22;6424;48.520;11.228;2022-11-20T09:04:56;5.20;99.90
12720;DHT22;6424;48.520;11.228;2022-11-20T09:07:37;5.20;99.90
12720;DHT22;6424;48.520;11.228;2022-11-20T09:10:18;5.30;99.90
12720;DHT22;6424;48.520;11.228;2022-11-20T09:12:59;5.30;99.90
12720;DHT22;6424;48.520;11.228;2022-11-20T09:15:40;5.30;99.90
12720;DHT22;6424;48.520;11.228;2022-11-20T09:18:21;5.30;99.90
12720;DHT22;6424;48.520;11.228;2022-11-20T09:21:04;5.30;99.90
12720;DHT22;6424;48.520;11.228;2022-11-20T09:23:45;5.30;99.90
12720;DHT22;6424;48.520;11.228;2022-11-20T09:26:27;5.30;99.90
12720;DHT22;6424;48.520;11.228;2022-11-20T09:29:08;5.30;99.90
12720;DHT22;6424;48.520;11.228;2022-11-20T09:31:48;5.40;99.90
12720;DHT22;6424;48.520;11.228;2022-11-20T09:34:14;5.40;99.90
12720;DHT22;6424;48.520;11.228;2022-11-20T09:36:55;5.40;99.90
12720;DHT22;6424;48.520;11.228;2022-11-20T09:39:36;5.40;99.90
12720;DHT22;6424;48.520;11.228;2022-11-20T09:51:06;5.60;99.90
12720;DHT22;6424;48.520;11.228;2022-11-20T09:56:59;5.70;99.90
12720;DHT22;6424;48.520;11.228;2022-11-20T09:59:34;5.70;99.90
12720;DHT22;6424;48.520;11.228;2022-11-20T10:05:33;5.80;99.90
12720;DHT22;6424;48.520;11.228;2022-11-20T10:10:45;5.90;99.90
12720;DHT22;6424;48.520;11.228;2022-11-20T10:13:55;5.90;99.90
12720;DHT22;6424;48.520;11.228;2022-11-20T10:29:05;6.00;99.90
12720;DHT22;6424;48.520;11.228;2022-11-20T10:32:01;6.00;99.90
12720;DHT22;6424;48.520;11.228;2022-11-20T10:37:27;6.10;99.90
12720;DHT22;6424;48.520;11.228;2022-11-20T10:40:35;6.20;99.90
12720;DHT22;6424;48.520;11.228;2022-11-20T10:43:23;6.20;99.90
12720;DHT22;6424;48.520;11.228;2022-11-20T10:46:19;6.30;99.90
12720;DHT22;6424;48.520;11.228;2022-11-20T10:49:09;6.40;99.90
12720;DHT22;6424;48.520;11.228;2022-11-20T10:58:03;6.60;99.90
12720;DHT22;6424;48.520;11.228;2022-11-20T11:00:42;6.70;99.90
12720;DHT22;6424;48.520;11.228;2022-11-20T11:03:29;6.70;99.90
12720;DHT22;6424;48.520;11.228;2022-11-20T11:06:37;6.70;99.90
12720;DHT22;6424;48.520;11.228;2022-11-20T11:09:26;6.70;99.90
12720;DHT22;6424;48.520;11.228;2022-11-20T11:12:10;6.70;99.90
12720;DHT22;6424;48.520;11.228;2022-11-20T11:14:53;6.70;99.90
12720;DHT22;6424;48.520;11.228;2022-11-20T11:17:34;6.70;99.90
12720;DHT22;6424;48.520;11.228;2022-11-20T11:20:24;6.80;99.90
12720;DHT22;6424;48.520;11.228;2022-11-20T11:23:10;6.80;99.90
12720;DHT22;6424;48.520;11.228;2022-11-20T11:26:05;6.80;99.90
12720;DHT22;6424;48.520;11.228;2022-11-20T11:31:31;6.90;99.90
12720;DHT22;6424;48.520;11.228;2022-11-20T11:34:14;6.90;99.90
12720;DHT22;6424;48.520;11.228;2022-11-20T11:36:58;6.80;99.90
12720;DHT22;6424;48.520;11.228;2022-11-20T11:39:41;6.70;99.90
12720;DHT22;6424;48.520;11.228;2022-11-20T11:42:22;6.70;99.90
12720;DHT22;6424;48.520;11.228;2022-11-20T11:44:48;6.70;99.90
12720;DHT22;6424;48.520;11.228;2022-11-20T11:47:48;6.70;99.90
12720;DHT22;6424;48.520;11.228;2022-11-20T11:50:21;6.80;99.90
12720;DHT22;6424;48.520;11.228;2022-11-20T11:53:13;6.90;99.90
12720;DHT22;6424;48.520;11.228;2022-11-20T11:56:13;6.80;99.90
12720;DHT22;6424;48.520;11.228;2022-11-20T11:58:57;6.70;99.90
12720;DHT22;6424;48.520;11.228;2022-11-20T12:01:55;6.70;99.90
12720;DHT22;6424;48.520;11.228;2022-11-20T12:10:21;6.60;99.90
12720;DHT22;6424;48.520;11.228;2022-11-20T12:16:13;6.70;99.90
12720;DHT22;6424;48.520;11.228;2022-11-20T12:18:55;6.70;99.90
12720;DHT22;6424;48.520;11.228;2022-11-20T12:21:56;6.70;99.90
12720;DHT22;6424;48.520;11.228;2022-11-20T12:30:48;6.70;99.90
12720;DHT22;6424;48.520;11.228;2022-11-20T12:36:56;6.70;99.90
12720;DHT22;6424;48.520;11.228;2022-11-20T12:39:42;6.70;99.90
12720;DHT22;6424;48.520;11.228;2022-11-20T13:00:31;6.50;99.90
12720;DHT22;6424;48.520;11.228;2022-11-20T13:03:43;6.50;99.90
12720;DHT22;6424;48.520;11.228;2022-11-20T13:06:25;6.50;99.90
12720;DHT22;6424;48.520;11.228;2022-11-20T13:09:09;6.50;99.90
12720;DHT22;6424;48.520;11.228;2022-11-20T13:20:26;6.40;99.90
12720;DHT22;6424;48.520;11.228;2022-11-20T13:23:07;6.40;99.90
12720;DHT22;6424;48.520;11.228;2022-11-20T13:25:48;6.40;99.90
12720;DHT22;6424;48.520;11.228;2022-11-20T13:28:31;6.40;99.90
12720;DHT22;6424;48.520;11.228;2022-11-20T13:31:33;6.40;99.90
12720;DHT22;6424;48.520;11.228;2022-11-20T13:34:26;6.40;99.90
12720;DHT22;6424;48.520;11.228;2022-11-20T13:37:31;6.40;99.90
12720;DHT22;6424;48.520;11.228;2022-11-20T13:40:19;6.40;99.90
12720;DHT22;6424;48.520;11.228;2022-11-20T13:46:04;6.40;99.90
12720;DHT22;6424;48.520;11.228;2022-11-20T13:48:46;6.50;99.90
12720;DHT22;6424;48.520;11.228;2022-11-20T13:51:46;6.50;99.90
12720;DHT22;6424;48.520;11.228;2022-11-20T14:00:11;6.50;99.90
12720;DHT22;6424;48.520;11.228;2022-11-20T14:03:17;6.50;99.90
12720;DHT22;6424;48.520;11.228;2022-11-20T14:05:57;6.40;99.90
12720;DHT22;6424;48.520;11.228;2022-11-20T14:08:48;6.40;99.90
12720;DHT22;6424;48.520;11.228;2022-11-20T14:11:30;6.30;99.90
12720;DHT22;6424;48.520;11.228;2022-11-20T14:14:19;6.30;99.90
12720;DHT22;6424;48.520;11.228;2022-11-20T14:17:24;6.20;99.90
12720;DHT22;6424;48.520;11.228;2022-11-20T14:20:14;6.20;99.90
12720;DHT22;6424;48.520;11.228;2022-11-20T14:22:55;6.20;99.90
12720;DHT22;6424;48.520;11.228;2022-11-20T14:25:37;6.20;99.90
12720;DHT22;6424;48.520;11.228;2022-11-20T14:28:25;6.20;99.90
12720;DHT22;6424;48.520;11.228;2022-11-20T14:31:18;6.20;99.90
12720;DHT22;6424;48.520;11.228;2022-11-20T14:34:02;6.20;99.90
12720;DHT22;6424;48.520;11.228;2022-11-20T14:36:43;6.20;99.90
12720;DHT22;6424;48.520;11.228;2022-11-20T14:39:34;6.20;99.90
12720;DHT22;6424;48.520;11.228;2022-11-20T14:42:20;6.10;99.90
12720;DHT22;6424;48.520;11.228;2022-11-20T14:44:48;6.10;99.90
12720;DHT22;6424;48.520;11.228;2022-11-20T14:47:30;6.00;99.90
12720;DHT22;6424;48.520;11.228;2022-11-20T14:53:03;6.00;99.90
12720;DHT22;6424;48.520;11.228;2022-11-20T14:55:33;5.90;99.90
12720;DHT22;6424;48.520;11.228;2022-11-20T14:58:23;5.90;99.90
12720;DHT22;6424;48.520;11.228;2022-11-20T15:01:06;5.80;99.90
12720;DHT22;6424;48.520;11.228;2022-11-20T15:06:54;5.80;99.90
12720;DHT22;6424;48.520;11.228;2022-11-20T15:09:20;5.80;99.90
12720;DHT22;6424;48.520;11.228;2022-11-20T15:11:58;5.80;99.90
12720;DHT22;6424;48.520;11.228;2022-11-20T15:14:39;5.80;99.90
12720;DHT22;6424;48.520;11.228;2022-11-20T15:17:20;5.70;99.90
12720;DHT22;6424;48.520;11.228;2022-11-20T15:20:02;5.70;99.90
12720;DHT22;6424;48.520;11.228;2022-11-20T15:22:46;5.80;99.90
12720;DHT22;6424;48.520;11.228;2022-11-20T15:25:27;5.70;99.90
12720;DHT22;6424;48.520;11.228;2022-11-20T15:28:21;5.70;99.90
12720;DHT22;6424;48.520;11.228;2022-11-20T15:31:03;5.70;99.90
12720;DHT22;6424;48.520;11.228;2022-11-20T15:33:45;5.70;99.90
12720;DHT22;6424;48.520;11.228;2022-11-20T15:36:26;5.70;99.90
12720;DHT22;6424;48.520;11.228;2022-11-20T15:39:07;5.70;99.90
12720;DHT22;6424;48.520;11.228;2022-11-20T15:41:48;5.70;99.90
12720;DHT22;6424;48.520;11.228;2022-11-20T15:44:29;5.70;99.90
12720;DHT22;6424;48.520;11.228;2022-11-20T15:47:10;5.70;99.90
12720;DHT22;6424;48.520;11.228;2022-11-20T15:49:51;5.60;99.90
12720;DHT22;6424;48.520;11.228;2022-11-20T15:52:31;5.60;99.90
12720;DHT22;6424;48.520;11.228;2022-11-20T15:55:12;5.60;99.90
12720;DHT22;6424;48.520;11.228;2022-11-20T15:57:53;5.60;99.90
12720;DHT22;6424;48.520;11.228;2022-11-20T16:00:34;5.70;99.90
12720;DHT22;6424;48.520;11.228;2022-11-20T16:03:16;5.70;99.90
12720;DHT22;6424;48.520;11.228;2022-11-20T16:05:57;5.60;99.90
12720;DHT22;6424;48.520;11.228;2022-11-20T16:08:38;5.70;99.90
12720;DHT22;6424;48.520;11.228;2022-11-20T16:11:19;5.70;99.90
12720;DHT22;6424;48.520;11.228;2022-11-20T16:13:59;5.70;99.90
12720;DHT22;6424;48.520;11.228;2022-11-20T16:16:59;5.60;99.90
12720;DHT22;6424;48.520;11.228;2022-11-20T16:19:39;5.60;99.90
12720;DHT22;6424;48.520;11.228;2022-11-20T16:22:20;5.60;99.90
12720;DHT22;6424;48.520;11.228;2022-11-20T16:25:01;5.60;99.90
12720;DHT22;6424;48.520;11.228;2022-11-20T16:27:42;5.60;99.90
12720;DHT22;6424;48.520;11.228;2022-11-20T16:30:22;5.60;99.90
12720;DHT22;6424;48.520;11.228;2022-11-20T16:33:03;5.50;99.90
12720;DHT22;6424;48.520;11.228;2022-11-20T16:35:44;5.60;99.90
12720;DHT22;6424;48.520;11.228;2022-11-20T16:38:25;5.60;99.90
12720;DHT22;6424;48.520;11.228;2022-11-20T16:41:07;5.60;99.90
12720;DHT22;6424;48.520;11.228;2022-11-20T16:43:59;5.50;99.90
12720;DHT22;6424;48.520;11.228;2022-11-20T16:46:40;5.50;99.90
12720;DHT22;6424;48.520;11.228;2022-11-20T16:49:21;5.50;99.90
12720;DHT22;6424;48.520;11.228;2022-11-20T16:52:02;5.40;99.90
12720;DHT22;6424;48.520;11.228;2022-11-20T16:54:43;5.40;99.90
12720;DHT22;6424;48.520;11.228;2022-11-20T16:57:26;5.30;99.90
12720;DHT22;6424;48.520;11.228;2022-11-20T16:59:52;5.30;99.90
12720;DHT22;6424;48.520;11.228;2022-11-20T17:02:32;5.20;99.90
12720;DHT22;6424;48.520;11.228;2022-11-20T17:05:13;5.20;99.90
12720;DHT22;6424;48.520;11.228;2022-11-20T17:07:54;5.20;99.90
12720;DHT22;6424;48.520;11.228;2022-11-20T17:10:35;5.20;99.90
12720;DHT22;6424;48.520;11.228;2022-11-20T17:13:16;5.20;99.90
12720;DHT22;6424;48.520;11.228;2022-11-20T17:16:01;5.20;99.90
12720;DHT22;6424;48.520;11.228;2022-11-20T17:18:43;5.20;99.90
12720;DHT22;6424;48.520;11.228;2022-11-20T17:21:24;5.20;99.90
12720;DHT22;6424;48.520;11.228;2022-11-20T17:24:08;5.20;99.90
12720;DHT22;6424;48.520;11.228;2022-11-20T17:26:34;5.10;99.90
12720;DHT22;6424;48.520;11.228;2022-11-20T17:29:18;5.10;99.90
12720;DHT22;6424;48.520;11.228;2022-11-20T17:32:01;5.10;99.90
12720;DHT22;6424;48.520;11.228;2022-11-20T17:34:27;5.10;99.90
12720;DHT22;6424;48.520;11.228;2022-11-20T17:37:08;5.10;99.90
12720;DHT22;6424;48.520;11.228;2022-11-20T17:39:48;5.00;99.90
12720;DHT22;6424;48.520;11.228;2022-11-20T17:42:29;5.00;99.90
12720;DHT22;6424;48.520;11.228;2022-11-20T17:45:02;5.00;99.90
12720;DHT22;6424;48.520;11.228;2022-11-20T17:47:42;5.00;99.90
12720;DHT22;6424;48.520;11.228;2022-11-20T17:50:25;5.00;99.90
12720;DHT22;6424;48.520;11.228;2022-11-20T17:53:06;5.00;99.90
12720;DHT22;6424;48.520;11.228;2022-11-20T17:55:56;4.90;99.90
12720;DHT22;6424;48.520;11.228;2022-11-20T17:58:56;4.80;99.90
12720;DHT22;6424;48.520;11.228;2022-11-20T18:01:37;4.80;99.90
12720;DHT22;6424;48.520;11.228;2022-11-20T18:04:19;4.70;99.90
12720;DHT22;6424;48.520;11.228;2022-11-20T18:06:59;4.70;99.90
12720;DHT22;6424;48.520;11.228;2022-11-20T18:09:40;4.60;99.90
12720;DHT22;6424;48.520;11.228;2022-11-20T18:12:21;4.60;99.90
12720;DHT22;6424;48.520;11.228;2022-11-20T18:15:02;4.50;99.90
12720;DHT22;6424;48.520;11.228;2022-11-20T18:17:43;4.40;99.90
12720;DHT22;6424;48.520;11.228;2022-11-20T18:20:23;4.30;99.90
12720;DHT22;6424;48.520;11.228;2022-11-20T18:23:04;4.30;99.90
12720;DHT22;6424;48.520;11.228;2022-11-20T18:25:45;4.20;99.90
12720;DHT22;6424;48.520;11.228;2022-11-20T18:28:11;4.20;99.90
12720;DHT22;6424;48.520;11.228;2022-11-20T18:30:52;4.20;99.90
12720;DHT22;6424;48.520;11.228;2022-11-20T18:33:33;4.20;99.90
12720;DHT22;6424;48.520;11.228;2022-11-20T18:36:17;4.20;99.90
12720;DHT22;6424;48.520;11.228;2022-11-20T18:38:59;4.10;99.90
12720;DHT22;6424;48.520;11.228;2022-11-20T18:41:41;4.10;99.90
12720;DHT22;6424;48.520;11.228;2022-11-20T18:44:41;4.10;99.90
12720;DHT22;6424;48.520;11.228;2022-11-20T18:47:34;4.00;99.90
12720;DHT22;6424;48.520;11.228;2022-11-20T18:50:17;4.00;99.90
12720;DHT22;6424;48.520;11.228;2022-11-20T18:52:58;4.00;99.90
12720;DHT22;6424;48.520;11.228;2022-11-20T18:55:39;4.00;99.90
12720;DHT22;6424;48.520;11.228;2022-11-20T18:58:20;4.00;99.90
12720;DHT22;6424;48.520;11.228;2022-11-20T19:01:08;4.00;99.90
12720;DHT22;6424;48.520;11.228;2022-11-20T19:03:49;4.10;99.90
12720;DHT22;6424;48.520;11.228;2022-11-20T19:06:29;4.10;99.90
12720;DHT22;6424;48.520;11.228;2022-11-20T19:09:11;4.10;99.90
12720;DHT22;6424;48.520;11.228;2022-11-20T19:11:52;4.10;99.90